This is the latest recevied weather packets stored in our database for station/object W7TRD. If no packets are shown the sender has not sent any weather packets the latest 10 day(s).
| Time | Temp. | Humidity | Pressure | Rain* | Wind** | Luminosity | Snow |
|---|---|---|---|---|---|---|---|
| 1777133616 | 12.22° C | 54% | 1013.7 hPa | 0 mm | - | 376 W/m² | - |
| 1777133315 | 11.67° C | 56% | 1013.9 hPa | 0 mm | - | 361 W/m² | - |
| 1777133015 | 11.67° C | 56% | 1013.8 hPa | 0 mm | - | 345 W/m² | - |
| 1777132711 | 11.11° C | 60% | 1014 hPa | 0 mm | - | 199 W/m² | - |
| 1777132408 | 10.56° C | 60% | 1013.9 hPa | 0 mm | - | 116 W/m² | - |
| 1777132105 | 10.56° C | 61% | 1013.9 hPa | 0 mm | - | 82 W/m² | - |
| 1777131800 | 10.56° C | 63% | 1014 hPa | 0 mm | - | 56 W/m² | - |
| 1777131498 | 10.56° C | 61% | 1013.8 hPa | 0 mm | - | 57 W/m² | - |
| 1777131197 | 10° C | 62% | 1014 hPa | 0 mm | - | 257 W/m² | - |
| 1777130893 | 9.44° C | 63% | 1014.2 hPa | 0 mm | - | 126 W/m² | - |
| 1777130589 | 8.89° C | 64% | 1014.3 hPa | 0 mm | - | 58 W/m² | - |
| 1777130286 | 9.44° C | 65% | 1014.1 hPa | 0 mm | - | 211 W/m² | - |
| 1777129982 | 9.44° C | 65% | 1014.1 hPa | 0 mm | - | 140 W/m² | - |
| 1777129682 | 8.89° C | 64% | 1013.9 hPa | 0 mm | - | 177 W/m² | - |
| 1777129376 | 8.89° C | 63% | 1014.1 hPa | 0 mm | - | 170 W/m² | - |
| 1777129071 | 10.56° C | 60% | 1014.1 hPa | 0 mm | - | 156 W/m² | - |
| 1777128768 | 10° C | 62% | 1013.9 hPa | 0 mm | - | 144 W/m² | - |
| 1777128465 | 8.33° C | 66% | 1014 hPa | 0 mm | - | 131 W/m² | - |
| 1777128162 | 8.89° C | 65% | 1014.1 hPa | 0 mm | - | 119 W/m² | - |
| 1777127860 | 8.89° C | 65% | 1014.1 hPa | 0 mm | - | 107 W/m² | - |
| 1777127557 | 7.78° C | 66% | 1014.1 hPa | 0 mm | - | 96 W/m² | - |
| 1777127252 | 7.22° C | 68% | 1014.4 hPa | 0 mm | - | 85 W/m² | - |
| 1777126949 | 7.22° C | 69% | 1014.3 hPa | 0 mm | - | 75 W/m² | - |
| 1777126645 | 6.11° C | 74% | 1014.4 hPa | 0 mm | - | 66 W/m² | - |
| 1777126341 | 5.56° C | 75% | 1014 hPa | 0 mm | - | 57 W/m² | - |
* Rain latest hour (hover to see other rain measurements)
** Current wind speed in m/s (hover to see current wind gust speed)